createdAt,value
2022-08-11T00:01:25.731Z,2.20
2022-08-11T00:05:27.637Z,2.40
2022-08-11T00:09:39.302Z,2.33
2022-08-11T00:13:48.458Z,2.47
2022-08-11T00:17:56.285Z,2.35
2022-08-11T00:22:05.000Z,2.55
2022-08-11T00:26:08.752Z,2.40
2022-08-11T00:30:13.130Z,2.25
2022-08-11T00:34:18.633Z,2.70
2022-08-11T00:38:25.958Z,2.40
2022-08-11T00:43:10.776Z,2.50
2022-08-11T00:47:37.949Z,2.58
2022-08-11T00:52:13.575Z,2.67
2022-08-11T00:56:43.583Z,2.22
2022-08-11T01:01:06.690Z,2.33
2022-08-11T01:05:37.979Z,2.60
2022-08-11T01:09:58.610Z,2.55
2022-08-11T01:14:12.494Z,2.40
2022-08-11T01:18:39.061Z,2.40
2022-08-11T01:22:59.320Z,2.80
2022-08-11T01:27:18.827Z,2.65
2022-08-11T01:31:49.729Z,2.35
2022-08-11T01:36:10.335Z,2.40
2022-08-11T01:40:38.513Z,2.45
2022-08-11T01:44:48.917Z,2.90
2022-08-11T01:49:29.140Z,2.70
2022-08-11T01:53:35.765Z,2.70
2022-08-11T01:57:50.650Z,2.60
2022-08-11T02:02:21.324Z,2.72
2022-08-11T02:06:58.201Z,2.85
2022-08-11T02:11:30.406Z,3.08
2022-08-11T02:15:42.049Z,2.72
2022-08-11T02:20:19.747Z,2.70
2022-08-11T02:24:29.828Z,2.80
2022-08-11T02:28:46.446Z,2.55
2022-08-11T02:33:25.397Z,2.63
2022-08-11T02:37:32.207Z,2.55
2022-08-11T02:42:31.643Z,2.85
2022-08-11T02:46:40.795Z,3.03
2022-08-11T02:51:10.553Z,2.83
2022-08-11T02:55:48.047Z,2.72
2022-08-11T02:59:53.682Z,3.13
2022-08-11T03:04:13.715Z,2.80
2022-08-11T03:08:40.040Z,3.40
2022-08-11T03:13:04.283Z,3.17
2022-08-11T03:17:28.676Z,3.05
2022-08-11T03:22:01.470Z,2.80
2022-08-11T03:26:26.962Z,3.10
2022-08-11T03:31:07.980Z,3.05
2022-08-11T03:35:11.540Z,3.25
2022-08-11T03:39:56.462Z,2.88
2022-08-11T03:44:29.481Z,3.47
2022-08-11T03:48:57.189Z,2.92
2022-08-11T03:53:28.051Z,3.05
2022-08-11T03:58:20.937Z,3.45
2022-08-11T04:02:28.399Z,3.00
2022-08-11T04:06:32.905Z,3.30
2022-08-11T04:11:12.053Z,2.90
2022-08-11T04:16:12.086Z,3.20
2022-08-11T04:20:32.314Z,2.90
2022-08-11T04:25:10.570Z,3.70
2022-08-11T04:30:09.003Z,3.55
2022-08-11T04:34:37.004Z,3.78
2022-08-11T04:38:44.399Z,3.60
2022-08-11T04:43:22.768Z,3.28
2022-08-11T04:48:11.704Z,3.40
2022-08-11T04:53:00.925Z,3.30
2022-08-11T04:57:30.208Z,3.47
2022-08-11T05:02:02.997Z,3.92
2022-08-11T05:06:28.190Z,3.92
2022-08-11T05:10:50.184Z,3.80
2022-08-11T05:15:12.036Z,4.10
2022-08-11T05:19:38.259Z,4.00
2022-08-11T05:24:07.447Z,4.22
2022-08-11T05:28:35.570Z,4.28
2022-08-11T05:33:02.043Z,4.50
2022-08-11T05:37:26.185Z,4.18
2022-08-11T05:41:50.251Z,4.07
2022-08-11T05:46:25.165Z,3.83
2022-08-11T05:50:46.759Z,3.97
2022-08-11T05:55:08.810Z,3.88
2022-08-11T05:59:16.382Z,3.15
2022-08-11T06:03:28.548Z,3.47
2022-08-11T06:07:47.205Z,3.10
2022-08-11T06:11:51.737Z,3.05
2022-08-11T06:15:55.816Z,3.15
2022-08-11T06:20:07.644Z,3.58
2022-08-11T06:24:14.441Z,3.20
2022-08-11T06:28:21.011Z,3.05
2022-08-11T06:32:32.503Z,2.92
2022-08-11T06:36:57.976Z,3.00
2022-08-11T06:41:30.395Z,3.20
2022-08-11T06:45:51.219Z,3.15
2022-08-11T06:50:16.456Z,3.33
2022-08-11T06:54:18.544Z,3.22
2022-08-11T06:58:41.033Z,2.95
2022-08-11T07:02:53.220Z,3.25
2022-08-11T07:07:26.199Z,2.95
2022-08-11T07:12:05.297Z,3.20
2022-08-11T07:16:13.166Z,3.13
2022-08-11T07:20:36.193Z,2.78
2022-08-11T07:25:20.053Z,2.78
2022-08-11T07:29:23.070Z,2.78
2022-08-11T07:34:07.268Z,2.65
2022-08-11T07:38:01.783Z,2.83
2022-08-11T07:42:10.815Z,2.50
2022-08-11T07:46:31.685Z,2.88
2022-08-11T07:50:55.991Z,2.75
2022-08-11T07:55:10.311Z,2.60
2022-08-11T08:00:00.561Z,3.05
2022-08-11T08:04:12.295Z,2.67
2022-08-11T08:08:34.558Z,2.40
2022-08-11T08:12:55.442Z,2.92
2022-08-11T08:17:16.978Z,2.55
2022-08-11T08:21:19.026Z,2.67
2022-08-11T08:25:20.829Z,2.25
2022-08-11T08:29:41.646Z,2.45
2022-08-11T08:33:43.746Z,2.55
2022-08-11T08:37:47.674Z,2.35
2022-08-11T08:41:54.452Z,2.80
2022-08-11T08:45:57.139Z,2.50
2022-08-11T08:50:21.397Z,2.58
2022-08-11T08:54:42.209Z,2.50
2022-08-11T08:58:48.343Z,2.42
2022-08-11T09:02:53.673Z,2.42
2022-08-11T09:06:59.025Z,1.90
2022-08-11T09:11:21.444Z,2.17
2022-08-11T09:15:24.354Z,2.00
2022-08-11T09:19:26.865Z,1.90
2022-08-11T09:24:08.940Z,2.00
2022-08-11T09:28:13.997Z,2.22
2022-08-11T09:32:21.173Z,2.22
2022-08-11T09:36:42.349Z,2.38
2022-08-11T09:40:56.169Z,1.70
2022-08-11T09:45:00.932Z,2.25
2022-08-11T09:49:05.101Z,1.92
2022-08-11T09:53:36.827Z,1.70
2022-08-11T09:57:48.507Z,1.95
2022-08-11T10:01:57.047Z,1.70
2022-08-11T10:06:34.490Z,1.75
2022-08-11T10:10:38.971Z,1.65
2022-08-11T10:15:09.630Z,1.98
2022-08-11T10:19:11.853Z,1.80
2022-08-11T10:23:32.773Z,1.70
2022-08-11T10:28:16.952Z,1.80
2022-08-11T10:32:17.434Z,1.80
2022-08-11T10:36:20.655Z,2.30
2022-08-11T10:40:23.942Z,2.05
2022-08-11T10:44:26.183Z,1.85
2022-08-11T10:48:38.629Z,2.08
2022-08-11T10:53:05.031Z,2.60
2022-08-11T10:57:25.832Z,1.70
2022-08-11T11:01:39.165Z,1.60
2022-08-11T11:06:28.757Z,1.75
2022-08-11T11:10:07.024Z,1.92
2022-08-11T11:14:36.469Z,1.80
2022-08-11T11:19:00.878Z,1.90
2022-08-11T11:23:19.944Z,1.85
2022-08-11T11:27:27.293Z,1.83
2022-08-11T11:31:59.151Z,1.80
2022-08-11T11:36:01.113Z,1.80
2022-08-11T11:40:13.199Z,1.73
2022-08-11T11:44:15.809Z,1.60
2022-08-11T11:48:17.983Z,1.70
2022-08-11T11:52:21.806Z,1.70
2022-08-11T11:56:25.983Z,1.85
2022-08-11T12:00:48.216Z,1.67
2022-08-11T12:04:51.277Z,1.60
2022-08-11T12:08:56.305Z,1.52
2022-08-11T12:13:20.600Z,1.50
2022-08-11T12:17:22.911Z,1.75
2022-08-11T12:21:26.182Z,1.45
2022-08-11T12:25:46.341Z,1.35
2022-08-11T12:29:57.077Z,1.50
2022-08-11T12:34:07.900Z,1.70
2022-08-11T12:38:12.669Z,1.90
2022-08-11T12:42:37.038Z,1.60
2022-08-11T12:46:44.639Z,1.40
2022-08-11T12:51:09.144Z,1.52
2022-08-11T12:55:34.674Z,1.70
2022-08-11T12:59:58.012Z,1.58
2022-08-11T13:04:18.732Z,1.50
2022-08-11T13:08:25.159Z,1.60
2022-08-11T13:12:47.899Z,1.67
2022-08-11T13:17:08.952Z,1.73
2022-08-11T13:21:20.716Z,1.60
2022-08-11T13:25:26.637Z,1.52
2022-08-11T13:29:32.666Z,1.50
2022-08-11T13:33:40.113Z,1.60
2022-08-11T13:38:19.449Z,1.52
2022-08-11T13:42:07.907Z,1.60
2022-08-11T13:46:24.275Z,1.30
2022-08-11T13:50:51.551Z,1.50
2022-08-11T13:54:53.744Z,1.98
2022-08-11T13:58:57.157Z,1.52
2022-08-11T14:02:59.793Z,1.33
2022-08-11T14:07:08.701Z,1.50
2022-08-11T14:12:23.644Z,1.60
2022-08-11T14:15:53.739Z,1.60
2022-08-11T14:19:56.107Z,1.30
2022-08-11T14:24:01.478Z,1.40
2022-08-11T14:28:33.009Z,1.90
2022-08-11T14:32:28.120Z,1.55
2022-08-11T14:36:34.057Z,1.40
2022-08-11T14:40:54.495Z,1.60
2022-08-11T14:45:22.700Z,1.45
2022-08-11T14:49:27.612Z,1.75
2022-08-11T14:53:29.429Z,1.52
2022-08-11T14:57:55.044Z,1.25
2022-08-11T15:02:15.954Z,1.50
2022-08-11T15:06:18.231Z,1.50
2022-08-11T15:10:21.155Z,1.38
2022-08-11T15:14:42.040Z,1.58
2022-08-11T15:18:44.035Z,1.50
2022-08-11T15:23:04.183Z,1.40
2022-08-11T15:27:33.513Z,1.33
2022-08-11T15:31:56.321Z,1.42
2022-08-11T15:36:21.513Z,2.03
2022-08-11T15:40:45.850Z,1.40
2022-08-11T15:45:18.889Z,1.40
2022-08-11T15:50:10.601Z,1.48
2022-08-11T15:54:09.294Z,1.40
2022-08-11T15:58:31.410Z,1.70
2022-08-11T16:02:52.395Z,1.55
2022-08-11T16:07:26.648Z,1.90
2022-08-11T16:11:29.560Z,1.75
2022-08-11T16:15:54.340Z,2.28
2022-08-11T16:19:58.743Z,1.88
2022-08-11T16:24:02.268Z,1.85
2022-08-11T16:28:06.640Z,1.83
2022-08-11T16:32:17.298Z,1.60
2022-08-11T16:36:40.081Z,1.50
2022-08-11T16:40:46.982Z,1.65
2022-08-11T16:45:07.505Z,1.60
2022-08-11T16:49:38.105Z,1.52
2022-08-11T16:53:54.718Z,1.50
2022-08-11T16:58:26.234Z,1.83
2022-08-11T17:02:53.630Z,1.73
2022-08-11T17:07:23.671Z,1.75
2022-08-11T17:12:09.852Z,1.88
2022-08-11T17:16:24.945Z,1.88
2022-08-11T17:20:40.336Z,1.60
2022-08-11T17:24:47.508Z,1.85
2022-08-11T17:28:56.525Z,1.80
2022-08-11T17:33:19.637Z,1.70
2022-08-11T17:37:23.276Z,1.85
2022-08-11T17:41:43.811Z,1.83
2022-08-11T17:46:05.283Z,1.88
2022-08-11T17:50:17.189Z,2.35
2022-08-11T17:54:40.299Z,2.33
2022-08-11T17:59:03.070Z,2.05
2022-08-11T18:03:25.963Z,1.48
2022-08-11T18:07:46.738Z,1.75
2022-08-11T18:12:13.038Z,1.73
2022-08-11T18:16:33.835Z,1.65
2022-08-11T18:20:55.468Z,1.73
2022-08-11T18:25:32.993Z,1.70
2022-08-11T18:29:55.031Z,1.90
2022-08-11T18:34:20.468Z,1.60
2022-08-11T18:38:44.634Z,1.80
2022-08-11T18:43:08.029Z,2.00
2022-08-11T18:47:32.614Z,2.10
2022-08-11T18:52:02.900Z,2.20
2022-08-11T18:56:24.494Z,1.98
2022-08-11T19:00:46.282Z,2.08
2022-08-11T19:05:07.574Z,1.85
2022-08-11T19:09:33.270Z,1.65
2022-08-11T19:13:55.305Z,1.90
2022-08-11T19:18:17.808Z,2.40
2022-08-11T19:22:39.351Z,1.80
2022-08-11T19:27:01.717Z,2.60
2022-08-11T19:31:22.941Z,2.22
2022-08-11T19:35:44.145Z,2.10
2022-08-11T19:40:08.019Z,2.45
2022-08-11T19:44:30.662Z,2.30
2022-08-11T19:48:52.471Z,2.47
2022-08-11T19:53:16.993Z,2.50
2022-08-11T19:57:40.671Z,2.03
2022-08-11T20:02:13.577Z,2.15
2022-08-11T20:06:36.491Z,2.30
2022-08-11T20:10:57.721Z,2.60
2022-08-11T20:15:19.771Z,2.38
2022-08-11T20:19:55.464Z,2.60
2022-08-11T20:24:19.753Z,2.50
2022-08-11T20:28:40.455Z,2.42
2022-08-11T20:33:01.748Z,2.65
2022-08-11T20:37:23.678Z,2.65
2022-08-11T20:41:58.950Z,2.45
2022-08-11T20:46:21.431Z,3.10
2022-08-11T20:50:45.663Z,2.92
2022-08-11T20:55:10.898Z,2.55
2022-08-11T20:59:56.677Z,2.90
2022-08-11T21:04:17.343Z,3.10
2022-08-11T21:08:46.857Z,3.13
2022-08-11T21:13:24.016Z,2.90
2022-08-11T21:18:00.901Z,2.30
2022-08-11T21:22:34.443Z,2.70
2022-08-11T21:27:03.298Z,2.00
2022-08-11T21:31:27.692Z,2.33
2022-08-11T21:35:48.352Z,2.28
2022-08-11T21:40:14.868Z,2.50
2022-08-11T21:44:38.054Z,2.55
2022-08-11T21:48:59.149Z,2.40
2022-08-11T21:53:20.548Z,2.42
2022-08-11T21:57:48.173Z,2.75
2022-08-11T22:02:12.841Z,2.53
2022-08-11T22:06:35.642Z,2.55
2022-08-11T22:10:56.929Z,2.70
2022-08-11T22:15:23.162Z,2.75
2022-08-11T22:19:43.748Z,2.65
2022-08-11T22:24:05.221Z,2.47
2022-08-11T22:28:28.714Z,2.67
2022-08-11T22:32:49.618Z,2.53
2022-08-11T22:37:10.449Z,2.80
2022-08-11T22:41:47.958Z,2.60
2022-08-11T22:46:08.222Z,2.38
2022-08-11T22:50:29.252Z,2.60
2022-08-11T22:54:52.055Z,2.60
2022-08-11T22:59:13.721Z,2.80
2022-08-11T23:03:37.889Z,2.50
2022-08-11T23:07:59.967Z,2.55
2022-08-11T23:12:21.183Z,2.80
2022-08-11T23:16:42.678Z,2.60
2022-08-11T23:21:04.229Z,2.65
2022-08-11T23:25:25.175Z,2.85
2022-08-11T23:29:46.553Z,3.10
2022-08-11T23:34:39.470Z,2.50
2022-08-11T23:38:52.776Z,2.80
2022-08-11T23:43:14.210Z,2.60
2022-08-11T23:47:34.864Z,3.00
2022-08-11T23:52:11.345Z,3.17
2022-08-11T23:56:33.537Z,2.90
